createdAt,value
2023-05-13T00:02:56.713Z,56.95
2023-05-13T00:07:59.182Z,57.53
2023-05-13T00:13:02.898Z,58.17
2023-05-13T00:18:05.140Z,57.79
2023-05-13T00:23:07.305Z,58.52
2023-05-13T00:28:10.823Z,59.08
2023-05-13T00:33:12.992Z,58.74
2023-05-13T00:38:15.081Z,59.38
2023-05-13T00:43:19.131Z,60.19
2023-05-13T00:48:22.201Z,60.61
2023-05-13T00:53:24.448Z,61.37
2023-05-13T00:58:28.017Z,61.03
2023-05-13T01:03:35.362Z,61.22
2023-05-13T01:08:46.808Z,61.87
2023-05-13T01:14:01.671Z,62.12
2023-05-13T01:19:13.699Z,63.45
2023-05-13T01:24:17.444Z,62.81
2023-05-13T01:29:19.676Z,63.11
2023-05-13T01:34:24.146Z,63.34
2023-05-13T01:39:30.857Z,63.19
2023-05-13T01:44:33.307Z,63.24
2023-05-13T01:49:35.661Z,62.55
2023-05-13T01:54:39.149Z,62.48
2023-05-13T01:59:41.435Z,62.26
2023-05-13T02:04:43.793Z,62.04
2023-05-13T02:09:47.159Z,61.88
2023-05-13T02:14:49.371Z,62.39
2023-05-13T02:19:51.077Z,63.04
2023-05-13T02:24:54.455Z,63.27
2023-05-13T02:29:56.389Z,63.32
2023-05-13T02:34:58.406Z,63.09
2023-05-13T02:40:01.732Z,63.02
2023-05-13T02:45:04.353Z,64.31
2023-05-13T02:50:07.836Z,64.11
2023-05-13T02:55:11.414Z,63.18
2023-05-13T03:00:14.665Z,63.24
2023-05-13T03:05:16.991Z,63.35
2023-05-13T03:10:20.719Z,63.52
2023-05-13T03:15:23.047Z,63.77
2023-05-13T03:20:25.145Z,63.92
2023-05-13T03:25:28.734Z,64.10
2023-05-13T03:30:30.956Z,64.54
2023-05-13T03:35:33.162Z,64.76
2023-05-13T03:40:36.623Z,64.60
2023-05-13T03:45:38.781Z,64.83
2023-05-13T03:50:40.743Z,64.72
2023-05-13T03:55:43.826Z,64.82
2023-05-13T04:00:45.972Z,64.79
2023-05-13T04:05:49.494Z,65.08
2023-05-13T04:10:53.036Z,64.89
2023-05-13T04:15:55.038Z,64.34
2023-05-13T04:20:57.219Z,64.49
2023-05-13T04:26:00.825Z,63.59
2023-05-13T04:31:03.017Z,62.71
2023-05-13T04:36:06.010Z,61.75
2023-05-13T04:41:09.522Z,55.82
2023-05-13T04:46:11.236Z,51.56
2023-05-13T04:51:13.060Z,50.05
2023-05-13T04:56:16.905Z,48.01
2023-05-13T05:01:19.064Z,46.96
2023-05-13T05:06:21.467Z,46.31
2023-05-13T05:11:24.842Z,45.32
2023-05-13T05:16:26.892Z,43.89
2023-05-13T05:21:29.141Z,41.46
2023-05-13T05:26:32.795Z,41.81
2023-05-13T05:31:35.194Z,40.00
2023-05-13T05:36:38.315Z,40.90
2023-05-13T05:41:42.001Z,38.47
2023-05-13T05:46:44.095Z,37.69
2023-05-13T05:51:46.047Z,38.11
2023-05-13T05:56:49.484Z,38.97
2023-05-13T06:01:51.370Z,37.41
2023-05-13T06:06:53.810Z,36.70
2023-05-13T06:11:57.220Z,37.20
2023-05-13T06:16:59.007Z,36.02
2023-05-13T06:22:03.211Z,34.97
2023-05-13T06:27:07.774Z,34.25
2023-05-13T06:32:09.997Z,35.00
2023-05-13T06:37:12.696Z,35.82
2023-05-13T06:42:16.464Z,35.41
2023-05-13T06:47:19.893Z,34.62
2023-05-13T06:52:23.311Z,34.80
2023-05-13T06:57:38.871Z,34.34
2023-05-13T07:02:44.305Z,31.91
2023-05-13T07:07:46.935Z,31.38
2023-05-13T07:12:50.257Z,28.87
2023-05-13T07:17:52.094Z,30.86
2023-05-13T07:22:54.205Z,29.38
2023-05-13T07:27:57.835Z,28.88
2023-05-13T07:32:59.722Z,28.15
2023-05-13T07:38:02.210Z,27.89
2023-05-13T07:43:05.634Z,27.19
2023-05-13T07:48:08.014Z,27.20
2023-05-13T07:53:10.430Z,27.46
2023-05-13T07:58:14.303Z,27.12
2023-05-13T08:03:16.375Z,27.88
2023-05-13T08:08:18.750Z,28.15
2023-05-13T08:13:21.889Z,27.02
2023-05-13T08:18:24.011Z,27.67
2023-05-13T08:23:40.366Z,27.85
2023-05-13T08:28:49.108Z,27.99
2023-05-13T08:33:52.145Z,27.07
2023-05-13T08:38:53.848Z,27.42
2023-05-13T08:43:58.677Z,28.04
2023-05-13T08:49:02.122Z,26.56
2023-05-13T08:54:04.685Z,27.33
2023-05-13T08:59:07.979Z,27.42
2023-05-13T09:04:11.048Z,25.96
2023-05-13T09:09:13.133Z,25.12
2023-05-13T09:14:19.530Z,26.09
2023-05-13T09:19:24.623Z,25.95
2023-05-13T09:24:26.888Z,24.53
2023-05-13T09:29:30.311Z,24.03
2023-05-13T09:34:35.164Z,25.27
2023-05-13T09:39:41.444Z,25.25
2023-05-13T09:44:46.166Z,25.57
2023-05-13T09:49:56.568Z,24.24
2023-05-13T09:54:59.009Z,23.58
2023-05-13T10:00:05.009Z,22.31
2023-05-13T10:05:09.855Z,21.87
2023-05-13T10:10:12.725Z,20.51
2023-05-13T10:15:16.493Z,21.30
2023-05-13T10:20:19.232Z,21.52
2023-05-13T10:25:21.807Z,21.57
2023-05-13T10:30:25.079Z,20.41
2023-05-13T10:35:31.592Z,21.36
2023-05-13T10:41:01.537Z,21.22
2023-05-13T10:46:06.841Z,22.72
2023-05-13T10:51:10.500Z,22.89
2023-05-13T10:56:12.395Z,23.55
2023-05-13T11:01:17.818Z,24.32
2023-05-13T11:06:21.804Z,24.07
2023-05-13T11:11:26.359Z,24.57
2023-05-13T11:16:29.959Z,23.80
2023-05-13T11:21:36.040Z,24.57
2023-05-13T11:26:49.376Z,23.41
2023-05-13T11:31:53.551Z,23.63
2023-05-13T11:37:06.228Z,23.97
2023-05-13T11:42:10.141Z,23.30
2023-05-13T11:47:13.916Z,24.04
2023-05-13T11:52:18.056Z,23.20
2023-05-13T11:57:21.763Z,24.15
2023-05-13T12:02:27.646Z,24.30
2023-05-13T12:07:30.515Z,23.73
2023-05-13T12:12:34.807Z,23.74
2023-05-13T12:17:38.141Z,23.66
2023-05-13T12:22:54.708Z,23.61
2023-05-13T12:27:56.778Z,23.78
2023-05-13T12:33:00.449Z,24.16
2023-05-13T12:38:04.300Z,23.97
2023-05-13T12:43:05.991Z,23.81
2023-05-13T12:48:10.400Z,24.47
2023-05-13T12:53:12.608Z,22.06
2023-05-13T12:58:14.488Z,23.60
2023-05-13T13:03:18.178Z,25.39
2023-05-13T13:08:20.563Z,24.76
2023-05-13T13:13:23.885Z,25.07
2023-05-13T13:18:27.706Z,26.09
2023-05-13T13:23:29.587Z,24.74
2023-05-13T13:28:31.606Z,26.80
2023-05-13T13:33:35.207Z,25.91
2023-05-13T13:38:37.255Z,27.27
2023-05-13T13:43:39.266Z,25.09
2023-05-13T13:48:42.403Z,26.08
2023-05-13T13:53:44.739Z,27.25
2023-05-13T13:58:46.996Z,27.95
2023-05-13T14:03:51.269Z,28.06
2023-05-13T14:08:53.630Z,27.88
2023-05-13T14:13:56.413Z,26.50
2023-05-13T14:19:00.845Z,26.93
2023-05-13T14:24:03.120Z,26.16
2023-05-13T14:29:05.799Z,25.63
2023-05-13T14:34:09.169Z,25.66
2023-05-13T14:39:11.303Z,24.90
2023-05-13T14:44:13.943Z,23.94
2023-05-13T14:49:17.468Z,25.04
2023-05-13T14:54:19.377Z,25.37
2023-05-13T14:59:21.343Z,23.73
2023-05-13T15:04:24.566Z,24.90
2023-05-13T15:09:26.742Z,23.79
2023-05-13T15:14:29.655Z,23.70
2023-05-13T15:19:32.895Z,24.81
2023-05-13T15:24:35.584Z,23.83
2023-05-13T15:29:37.629Z,24.91
2023-05-13T15:34:41.746Z,24.86
2023-05-13T15:39:44.529Z,23.84
2023-05-13T15:44:47.013Z,23.75
2023-05-13T15:49:50.539Z,23.75
2023-05-13T15:54:52.865Z,25.18
2023-05-13T15:59:55.309Z,26.32
2023-05-13T16:04:58.683Z,26.72
2023-05-13T16:10:01.051Z,32.21
2023-05-13T16:15:04.129Z,35.10
2023-05-13T16:20:11.505Z,37.38
2023-05-13T16:25:14.464Z,39.87
2023-05-13T16:30:16.749Z,40.82
2023-05-13T16:35:21.051Z,39.75
2023-05-13T16:40:23.241Z,38.19
2023-05-13T16:45:25.952Z,38.02
2023-05-13T16:50:30.268Z,37.80
2023-05-13T16:55:32.108Z,36.24
2023-05-13T17:00:33.858Z,36.38
2023-05-13T17:05:37.516Z,37.77
2023-05-13T17:10:40.007Z,38.28
2023-05-13T17:15:42.005Z,38.37
2023-05-13T17:20:45.610Z,37.98
2023-05-13T17:25:47.795Z,39.04
2023-05-13T17:30:50.119Z,40.76
2023-05-13T17:35:53.302Z,40.99
2023-05-13T17:40:55.448Z,41.88
2023-05-13T17:45:57.763Z,43.93
2023-05-13T17:51:01.036Z,45.95
2023-05-13T17:56:04.060Z,45.01
2023-05-13T18:01:05.965Z,45.53
2023-05-13T18:06:09.781Z,45.84
2023-05-13T18:11:11.756Z,45.35
2023-05-13T18:16:14.041Z,45.53
2023-05-13T18:21:17.464Z,45.90
2023-05-13T18:26:19.336Z,46.31
2023-05-13T18:31:21.598Z,46.42
2023-05-13T18:36:24.840Z,46.69
2023-05-13T18:41:26.864Z,47.17
2023-05-13T18:46:29.215Z,47.46
2023-05-13T18:51:32.916Z,47.84
2023-05-13T18:56:35.186Z,48.34
2023-05-13T19:01:37.198Z,48.76
2023-05-13T19:06:40.545Z,49.65
2023-05-13T19:11:43.882Z,49.76
2023-05-13T19:16:46.413Z,50.31
2023-05-13T19:21:49.798Z,51.39
2023-05-13T19:26:51.573Z,52.62
2023-05-13T19:31:53.692Z,51.92
2023-05-13T19:36:57.250Z,53.24
2023-05-13T19:41:59.529Z,53.52
2023-05-13T19:47:02.616Z,55.04
2023-05-13T19:52:06.440Z,56.09
2023-05-13T19:57:08.642Z,57.54
2023-05-13T20:02:10.851Z,58.35
2023-05-13T20:07:13.958Z,59.64
2023-05-13T20:12:16.087Z,61.15
2023-05-13T20:17:19.638Z,63.62
2023-05-13T20:22:23.173Z,63.33
2023-05-13T20:27:24.904Z,64.48
2023-05-13T20:32:27.572Z,65.05
2023-05-13T20:37:31.599Z,65.92
2023-05-13T20:42:33.391Z,67.41
2023-05-13T20:47:35.515Z,68.19
2023-05-13T20:52:39.108Z,68.36
2023-05-13T20:57:41.475Z,68.29
2023-05-13T21:02:43.625Z,67.75
2023-05-13T21:07:47.338Z,69.32
2023-05-13T21:12:49.479Z,69.60
2023-05-13T21:17:51.835Z,70.61
2023-05-13T21:22:55.613Z,70.98
2023-05-13T21:27:57.862Z,71.82
2023-05-13T21:33:00.212Z,73.20
2023-05-13T21:38:11.641Z,72.57
2023-05-13T21:43:15.108Z,72.58
2023-05-13T21:48:17.334Z,72.78
2023-05-13T21:53:20.853Z,73.37
2023-05-13T21:58:23.705Z,74.55
2023-05-13T22:03:25.836Z,74.92
2023-05-13T22:08:29.463Z,75.84
2023-05-13T22:13:31.890Z,76.47
2023-05-13T22:18:34.400Z,77.35
2023-05-13T22:23:38.302Z,78.00
2023-05-13T22:28:40.447Z,78.10
2023-05-13T22:33:42.667Z,78.69
2023-05-13T22:38:46.155Z,79.24
2023-05-13T22:43:47.839Z,80.21
2023-05-13T22:48:49.934Z,79.48
2023-05-13T22:53:53.075Z,80.12
2023-05-13T22:58:55.035Z,80.83
2023-05-13T23:03:57.051Z,81.10
2023-05-13T23:09:00.920Z,81.53
2023-05-13T23:14:02.972Z,81.96
2023-05-13T23:19:05.774Z,82.43
2023-05-13T23:24:09.327Z,83.13
2023-05-13T23:29:11.349Z,83.01
2023-05-13T23:34:13.265Z,83.47
2023-05-13T23:39:16.752Z,83.78
2023-05-13T23:44:18.672Z,83.70
2023-05-13T23:49:21.421Z,83.51
2023-05-13T23:54:24.962Z,83.57
2023-05-13T23:59:26.897Z,81.46
